Aérodrome :
LOGIN :

S'inscrire | Disclaimer

   EN    FR    IT 

 










Légende :    VFR   VFR Marginal   IFR   IFR Intensif   IFR Très Intensif
Visi : 
Plafond : 
>= 8 km
>= 3000ft
5 à 8 km
1000 à 3000 ft
1500m à 5 km
500 à 1000 ft
800 à 1500m
200 à 500 ft
< 800m
< 200 ft
Symboles :   Orages  Brouillard  Fortes neiges  Fortes précipitations  Vent > 20 kt
SIGMETs :   Divers  Orages  Givrage  Turbulence  Onde Orograph.  Cendres Volcan.







- Altitude de l'aérodrome : 525 ft
- Code IATA : VAF
- Voir les cartes d'approche


LFLU - Valence

DERNIER METAR :
  • 151000Z AUTO VRB03KT 9999 -RA NSC 18/12 Q1011

METARs EXPIRÉS :
  • 150930Z AUTO 01004KT CAVOK 17/12 Q1011
  • 150900Z AUTO 01004KT 330V040 CAVOK 16/12 Q1011
  • 150830Z AUTO 36004KT 9999 -RA NSC 15/11 Q1011
  • 150800Z AUTO 33004KT CAVOK 14/11 Q1011
  • 150730Z AUTO 01002KT CAVOK 13/11 Q1010

TAF N/A
Pas de NOTAMs connus pour ce terrain.
4 SIGMETs publiés pour la FIR Marseille (LFMM) :
 
Orages noyés dans la masse
LFMM SIGMET 9 VALID 151000/151200 LFPW
LFMM MARSEILLE FIR/UIR EMBD TS FCST WI N4045 E00430 - N4200 E00430 - N4200 E00345 - N4330 E00315 - N4300 E00530 - N3900 E00730 - N3900 E00545 - N4045 E00430 TOP FL360 MOV N 5KT NC=
Turbulence forte
LFMM SIGMET 8 VALID 151000/151200 LFPW
LFMM MARSEILLE FIR/UIR SEV TURB FCST WI N4315 E00245 - N4545 E00300 - N4530 E00345 - N4415 E00445 - N4345 E00700 - N4245 E00745 - N4315 E00245 SFC/FL070 STNR NC=
Orages noyés dans la masse
LFMM SIGMET 7 VALID 150800/151000 LFPW
LFMM MARSEILLE FIR/UIR EMBD TS FCST WI N3900 E00700 - N3900 E00430 - N4200 E00430 - N4200 E00345 - N4330 E00245 - N4345 E00245 - N4300 E00500 - N3900 E00700 TOP FL360 MOV N 5KT NC=
Turbulence forte
LFMM SIGMET 6 VALID 150800/151000 LFPW
LFMM MARSEILLE FIR/UIR SEV TURB FCST WI N4315 E00230 - N4545 E00300 - N4515 E00445 - N4415 E00445 - N4400 E00630 - N4245 E00715 - N4315 E00230 SFC/FL070 STNR NC=



MET'MAP, la Météo Aéronautique d'un coup d'oeil ! - Copyright ORBIFLY Décembre 2007 - Disclaimer

ORBIFLY MET'MAP TEAM :

Programmation & Développement : Alexandra Zaïnal
Conception & Développement : Baudouin d'Aumeries
Co-Programmation & Développement : Marc-Olivier Méhu
Soutien technique & logistique : Manuel Goepfert

Contact : metmap@orbifly.com




SOURCES & CREDITS :

   NOAA